Time;durP1;ratioP1;P1;durP2;ratioP2;P2;SDS_P1;SDS_P2;PMS_P1;PMS_P2;Temp;Humidity;BMP_temperature;BMP_pressure;BME280_temperature;BME280_humidity;BME280_pressure;Samples;Min_cycle;Max_cycle;Signal;HPM_P1;HPM_P2
2023/11/20 00:02:24;;;;;;;3.27;1.87;;;21.60;92.90;;;;;;5020666;28;20478;-74
2023/11/20 00:04:53;;;;;;;4.37;1.93;;;21.60;92.90;;;;;;5020161;28;20516;-72
2023/11/20 00:07:20;;;;;;;3.07;2.03;;;21.60;93.00;;;;;;5020693;28;20458;-73
2023/11/20 00:09:46;;;;;;;3.83;2.07;;;21.60;92.90;;;;;;5017695;28;20952;-73
2023/11/20 00:12:13;;;;;;;4.53;2.40;;;21.60;92.90;;;;;;5021960;28;20459;-72
2023/11/20 00:14:40;;;;;;;3.50;1.80;;;21.60;93.20;;;;;;5019521;28;20466;-73
2023/11/20 00:17:07;;;;;;;3.73;2.20;;;21.60;92.90;;;;;;5021005;28;20540;-72
2023/11/20 00:19:34;;;;;;;5.37;3.07;;;21.60;92.80;;;;;;5020789;28;20466;-71
2023/11/20 00:22:02;;;;;;;5.00;2.20;;;21.50;92.80;;;;;;5019650;28;20468;-73
2023/11/20 00:24:29;;;;;;;3.67;2.00;;;21.50;92.70;;;;;;5021048;28;21206;-73
2023/11/20 00:26:56;;;;;;;4.50;2.13;;;21.50;92.80;;;;;;5021037;28;20476;-74
2023/11/20 00:29:22;;;;;;;2.97;2.30;;;21.50;92.80;;;;;;5020990;28;20465;-73
2023/11/20 00:31:49;;;;;;;2.70;1.77;;;21.50;92.70;;;;;;5021978;28;20457;-72
2023/11/20 00:34:16;;;;;;;2.50;1.88;;;21.50;92.70;;;;;;5027010;28;20489;-76
2023/11/20 00:36:43;;;;;;;2.50;1.83;;;21.50;92.70;;;;;;5025102;28;20201;-77
2023/11/20 00:39:11;;;;;;;3.27;2.03;;;21.50;92.70;;;;;;5022348;28;20516;-77
2023/11/20 00:41:38;;;;;;;4.60;2.17;;;21.50;92.60;;;;;;5023536;28;20465;-74
2023/11/20 00:44:06;;;;;;;3.20;1.97;;;21.50;92.50;;;;;;5024830;28;20488;-73
2023/11/20 00:46:33;;;;;;;4.93;2.37;;;21.50;92.50;;;;;;5019569;28;20863;-74
2023/11/20 00:49:01;;;;;;;2.43;1.80;;;21.50;92.50;;;;;;5025829;28;20461;-75
2023/11/20 00:51:30;;;;;;;3.50;1.53;;;21.50;92.50;;;;;;5022453;28;20532;-76
2023/11/20 00:53:56;;;;;;;4.73;2.37;;;21.50;92.40;;;;;;5022379;28;20469;-73
2023/11/20 00:56:24;;;;;;;3.87;1.67;;;21.50;92.40;;;;;;5023703;28;20470;-76
2023/11/20 00:58:51;;;;;;;4.13;2.28;;;21.40;92.40;;;;;;5021494;28;20457;-74
2023/11/20 01:01:18;;;;;;;4.13;1.60;;;21.40;92.50;;;;;;5026156;28;20198;-74
2023/11/20 01:03:45;;;;;;;4.82;2.33;;;21.40;92.40;;;;;;5019588;28;20220;-75
2023/11/20 01:06:12;;;;;;;3.10;2.15;;;21.40;92.70;;;;;;5021101;28;20222;-74
2023/11/20 01:08:39;;;;;;;3.28;2.15;;;21.40;92.40;;;;;;5018418;28;20285;-74
2023/11/20 01:11:08;;;;;;;3.40;2.13;;;21.40;92.40;;;;;;5023588;28;20198;-74
2023/11/20 01:13:37;;;;;;;3.03;2.30;;;21.40;92.40;;;;;;5019392;28;21353;-74
2023/11/20 01:16:04;;;;;;;6.40;2.40;;;21.40;92.40;;;;;;5021677;28;22578;-74
2023/11/20 01:18:31;;;;;;;5.80;1.87;;;21.30;92.30;;;;;;5014839;28;20969;-76
2023/11/20 01:20:58;;;;;;;5.00;1.88;;;21.40;92.50;;;;;;5019777;28;20451;-76
2023/11/20 01:23:24;;;;;;;3.93;2.07;;;21.30;92.30;;;;;;5017819;28;20219;-76
2023/11/20 01:25:52;;;;;;;3.43;1.70;;;21.30;92.40;;;;;;5019698;28;20469;-75
2023/11/20 01:28:19;;;;;;;5.40;2.43;;;21.30;92.50;;;;;;5016957;28;21461;-76
2023/11/20 01:30:47;;;;;;;6.75;2.10;;;21.30;92.50;;;;;;5013909;28;20457;-74
2023/11/20 01:33:13;;;;;;;1.83;1.57;;;21.30;92.40;;;;;;5006585;28;20208;-74
2023/11/20 01:35:40;;;;;;;4.83;1.87;;;21.20;92.50;;;;;;5016905;28;20818;-75
2023/11/20 01:38:07;;;;;;;5.80;1.90;;;21.20;92.50;;;;;;5009361;28;20462;-75
2023/11/20 01:40:34;;;;;;;2.40;1.60;;;21.20;92.40;;;;;;5019906;28;20546;-74
2023/11/20 01:43:01;;;;;;;3.20;2.00;;;21.20;92.40;;;;;;5016014;28;20227;-75
2023/11/20 01:45:28;;;;;;;2.33;1.80;;;21.20;92.40;;;;;;5019752;28;20462;-74
2023/11/20 01:47:56;;;;;;;2.88;2.08;;;21.20;92.40;;;;;;5026384;28;20206;-75
2023/11/20 01:50:25;;;;;;;3.10;1.30;;;21.20;92.50;;;;;;5021843;28;20192;-74
2023/11/20 01:52:51;;;;;;;3.22;1.73;;;21.20;92.40;;;;;;5019429;28;20470;-75
2023/11/20 01:55:20;;;;;;;3.13;1.90;;;21.10;92.50;;;;;;5016606;28;21309;-75
2023/11/20 01:57:48;;;;;;;4.00;2.00;;;21.10;92.50;;;;;;5001375;28;20203;-75
2023/11/20 02:00:17;;;;;;;3.20;2.15;;;21.10;92.50;;;;;;5019157;28;21127;-75
2023/11/20 02:02:44;;;;;;;3.47;2.10;;;21.10;92.50;;;;;;5018650;28;21820;-75
2023/11/20 02:05:12;;;;;;;5.32;1.85;;;21.10;92.50;;;;;;5024473;28;20840;-75
2023/11/20 02:07:39;;;;;;;3.50;1.35;;;21.10;92.50;;;;;;5021326;28;20206;-75
2023/11/20 02:10:07;;;;;;;3.05;1.58;;;21.10;92.60;;;;;;5019063;28;20200;-75
2023/11/20 02:12:35;;;;;;;3.20;1.80;;;21.10;92.60;;;;;;5017440;28;20204;-75
2023/11/20 02:15:02;;;;;;;1.95;1.60;;;21.00;92.50;;;;;;5011892;28;22189;-73
2023/11/20 02:17:29;;;;;;;2.50;1.63;;;21.00;92.60;;;;;;5016104;28;20202;-73
2023/11/20 02:19:55;;;;;;;5.35;1.70;;;21.10;92.60;;;;;;5023440;28;20286;-73
2023/11/20 02:22:24;;;;;;;2.75;1.58;;;21.00;92.70;;;;;;5023372;28;20911;-73
2023/11/20 02:24:51;;;;;;;2.33;1.45;;;21.00;92.60;;;;;;5026617;28;20227;-75
2023/11/20 02:27:36;;;;;;;2.67;2.20;;;21.00;92.80;;;;;;5026645;28;20196;-74
2023/11/20 02:30:05;;;;;;;2.58;1.85;;;21.00;92.80;;;;;;5025616;28;20685;-74
2023/11/20 02:32:33;;;;;;;2.60;2.10;;;21.00;92.70;;;;;;5020102;28;21238;-74
2023/11/20 02:35:01;;;;;;;3.17;1.50;;;21.00;92.60;;;;;;5027868;28;20200;-74
2023/11/20 02:37:29;;;;;;;4.65;2.17;;;21.00;92.80;;;;;;5025897;28;20206;-74
2023/11/20 02:39:56;;;;;;;3.45;1.80;;;21.00;92.80;;;;;;5025762;28;20204;-74
2023/11/20 02:42:24;;;;;;;2.33;1.52;;;20.90;92.80;;;;;;5024898;28;20207;-73
2023/11/20 02:44:51;;;;;;;3.38;1.58;;;20.90;92.70;;;;;;5024670;28;20226;-73
2023/11/20 02:47:22;;;;;;;3.90;2.38;;;20.90;92.70;;;;;;5031762;28;20203;-74
2023/11/20 02:49:49;;;;;;;2.38;1.30;;;20.90;92.80;;;;;;5020155;28;20208;-74
2023/11/20 02:52:16;;;;;;;2.63;1.98;;;20.90;92.80;;;;;;5025377;28;20245;-73
2023/11/20 02:54:44;;;;;;;2.85;1.60;;;20.90;92.70;;;;;;5024397;28;21047;-74
2023/11/20 02:57:11;;;;;;;2.58;1.83;;;20.90;92.70;;;;;;5029582;28;20199;-74
2023/11/20 02:59:37;;;;;;;2.35;1.60;;;20.90;92.80;;;;;;5025926;28;20666;-74
2023/11/20 03:02:05;;;;;;;3.30;1.80;;;20.90;92.70;;;;;;5023880;28;20189;-74
2023/11/20 03:04:33;;;;;;;4.53;1.40;;;20.80;92.60;;;;;;5025582;28;20222;-74
2023/11/20 03:07:00;;;;;;;2.38;1.40;;;20.90;92.80;;;;;;5027891;28;20802;-74
2023/11/20 03:09:27;;;;;;;3.08;1.60;;;20.80;92.70;;;;;;5022982;28;20203;-74
2023/11/20 03:11:54;;;;;;;3.17;2.33;;;20.80;92.70;;;;;;5026605;28;20196;-74
2023/11/20 03:14:20;;;;;;;3.55;2.50;;;20.80;92.70;;;;;;5026816;28;20204;-75
2023/11/20 03:16:47;;;;;;;1.98;1.52;;;20.80;92.70;;;;;;5019751;28;20212;-74
2023/11/20 03:19:15;;;;;;;2.60;1.63;;;20.80;92.70;;;;;;5022263;28;20208;-74
2023/11/20 03:21:44;;;;;;;1.50;1.10;;;20.80;92.80;;;;;;5021831;28;21239;-74
2023/11/20 03:24:10;;;;;;;1.80;1.40;;;20.80;92.80;;;;;;5021261;28;20610;-74
2023/11/20 03:26:37;;;;;;;4.30;1.73;;;20.80;92.80;;;;;;5021911;28;20667;-74
2023/11/20 03:29:04;;;;;;;2.65;2.00;;;20.80;92.80;;;;;;5021138;28;20196;-74
2023/11/20 03:31:35;;;;;;;2.58;2.13;;;20.70;92.80;;;;;;5021236;28;20578;-74
2023/11/20 03:34:03;;;;;;;2.70;1.75;;;20.70;92.80;;;;;;5021776;28;20202;-74
2023/11/20 03:36:30;;;;;;;1.77;1.30;;;20.70;92.80;;;;;;5020214;28;20203;-74
2023/11/20 03:38:59;;;;;;;2.95;1.63;;;20.70;92.80;;;;;;5022345;28;20301;-75
2023/11/20 03:41:25;;;;;;;2.28;1.40;;;20.70;92.80;;;;;;5024064;28;20207;-74
2023/11/20 03:43:52;;;;;;;3.03;1.95;;;20.70;92.80;;;;;;5023334;28;20222;-75
2023/11/20 03:46:19;;;;;;;2.95;1.95;;;20.70;92.80;;;;;;5022503;28;20219;-74
2023/11/20 03:48:46;;;;;;;2.58;1.60;;;20.70;92.90;;;;;;5021821;28;20199;-74
2023/11/20 03:51:15;;;;;;;1.67;1.35;;;20.70;92.90;;;;;;5022196;28;20193;-74
2023/11/20 03:53:42;;;;;;;2.80;1.80;;;20.70;92.80;;;;;;5021344;28;20203;-73
2023/11/20 03:56:10;;;;;;;1.77;1.45;;;20.60;92.90;;;;;;5023795;28;20215;-73
2023/11/20 03:58:37;;;;;;;2.78;1.63;;;20.70;93.00;;;;;;5022699;28;20207;-73
2023/11/20 04:01:03;;;;;;;3.28;2.00;;;20.70;92.90;;;;;;5021961;28;20207;-73
2023/11/20 04:03:30;;;;;;;2.88;1.60;;;20.70;92.80;;;;;;5020112;28;20667;-73
2023/11/20 04:05:56;;;;;;;3.60;1.15;;;20.70;92.90;;;;;;5023127;28;20207;-73
2023/11/20 04:08:23;;;;;;;4.30;1.83;;;20.60;92.90;;;;;;5018469;28;20202;-72
2023/11/20 04:10:50;;;;;;;3.75;2.03;;;20.60;92.90;;;;;;5020670;28;20591;-72
2023/11/20 04:13:18;;;;;;;1.90;1.40;;;20.60;92.90;;;;;;5023456;28;20199;-73
2023/11/20 04:15:45;;;;;;;4.25;2.00;;;20.60;93.00;;;;;;5022635;28;20234;-72
2023/11/20 04:18:11;;;;;;;2.70;1.65;;;20.60;93.00;;;;;;5017808;28;20231;-73
2023/11/20 04:20:38;;;;;;;2.97;1.80;;;20.60;92.80;;;;;;5019503;28;20206;-72
2023/11/20 04:23:05;;;;;;;3.03;1.42;;;20.60;92.90;;;;;;5023674;28;20227;-73
2023/11/20 04:25:32;;;;;;;2.05;1.45;;;20.60;92.80;;;;;;5025087;28;20635;-73
2023/11/20 04:27:58;;;;;;;3.03;1.58;;;20.60;92.80;;;;;;5023953;28;20646;-73
2023/11/20 04:30:26;;;;;;;1.67;1.27;;;20.60;92.80;;;;;;5021378;28;20232;-73
2023/11/20 04:32:53;;;;;;;1.92;1.30;;;20.60;92.90;;;;;;5024189;28;20192;-73
2023/11/20 04:35:20;;;;;;;2.00;1.30;;;20.60;93.00;;;;;;5017798;28;21210;-72
2023/11/20 04:37:46;;;;;;;1.80;1.25;;;20.50;93.00;;;;;;5018328;28;20208;-74
2023/11/20 04:40:13;;;;;;;3.03;1.52;;;20.50;93.00;;;;;;5025608;28;20200;-73
2023/11/20 04:42:40;;;;;;;1.90;1.67;;;20.50;92.90;;;;;;5025371;28;20195;-72
2023/11/20 04:45:10;;;;;;;2.38;1.67;;;20.50;92.90;;;;;;5026590;28;20241;-73
2023/11/20 04:47:38;;;;;;;1.58;1.30;;;20.50;92.90;;;;;;5021805;28;20204;-72
2023/11/20 04:50:05;;;;;;;1.75;1.25;;;20.50;92.80;;;;;;5021715;28;20942;-74
2023/11/20 04:52:33;;;;;;;2.00;1.30;;;20.50;92.90;;;;;;5025204;28;20198;-73
2023/11/20 04:54:59;;;;;;;2.13;1.30;;;20.50;93.10;;;;;;5029593;28;20207;-73
2023/11/20 04:57:26;;;;;;;1.58;1.10;;;20.50;93.10;;;;;;5030339;28;20482;-73
2023/11/20 04:59:53;;;;;;;2.95;1.55;;;20.50;93.10;;;;;;5027383;28;20218;-73
2023/11/20 05:02:19;;;;;;;2.25;1.63;;;20.50;93.10;;;;;;5024732;28;20195;-72
2023/11/20 05:04:47;;;;;;;5.68;1.67;;;20.50;93.20;;;;;;5021960;28;20219;-72
2023/11/20 05:07:14;;;;;;;9.18;1.50;;;20.50;93.30;;;;;;5017964;28;20214;-69
2023/11/20 05:09:41;;;;;;;12.98;2.22;;;20.50;93.60;;;;;;5019057;28;20197;-70
2023/11/20 05:12:08;;;;;;;8.57;1.60;;;20.50;93.70;;;;;;5021008;28;20290;-70
2023/11/20 05:14:35;;;;;;;7.03;1.70;;;20.50;93.80;;;;;;5027276;28;20231;-73
2023/11/20 05:17:01;;;;;;;20.60;2.78;;;20.50;94.10;;;;;;5017520;28;20299;-69
2023/11/20 05:19:28;;;;;;;6.65;1.80;;;20.50;94.40;;;;;;5023127;28;20569;-70
2023/11/20 05:21:56;;;;;;;4.43;1.40;;;20.50;94.40;;;;;;5028347;28;20196;-72
2023/11/20 05:24:24;;;;;;;3.42;1.10;;;20.50;94.60;;;;;;5024925;28;20215;-70
2023/11/20 05:26:52;;;;;;;7.95;1.60;;;20.50;94.80;;;;;;5026005;28;20199;-70
2023/11/20 05:29:19;;;;;;;5.13;1.60;;;20.50;94.90;;;;;;5032116;28;20198;-73
2023/11/20 05:31:45;;;;;;;11.00;1.30;;;20.60;95.00;;;;;;5032175;28;20564;-74
2023/11/20 05:34:14;;;;;;;2.42;1.65;;;20.60;95.10;;;;;;5031823;28;20195;-73
2023/11/20 05:36:40;;;;;;;2.92;1.75;;;20.60;95.20;;;;;;5032400;28;20599;-70
2023/11/20 05:39:09;;;;;;;2.85;1.42;;;20.60;95.30;;;;;;5032406;28;20191;-72
2023/11/20 05:41:36;;;;;;;2.20;1.30;;;20.60;95.20;;;;;;5032239;28;20198;-70
2023/11/20 05:44:03;;;;;;;3.38;1.10;;;20.60;95.20;;;;;;5022699;28;20541;-77
2023/11/20 05:46:29;;;;;;;10.60;1.17;;;20.60;95.40;;;;;;5024746;28;20203;-70
2023/11/20 05:48:56;;;;;;;2.10;1.17;;;20.70;95.50;;;;;;5027875;28;20203;-76
2023/11/20 05:51:23;;;;;;;2.15;1.33;;;20.70;95.40;;;;;;5020139;28;20234;-71
2023/11/20 05:53:50;;;;;;;2.43;1.30;;;20.70;95.50;;;;;;5021283;28;20195;-72
2023/11/20 05:56:18;;;;;;;1.80;1.27;;;20.70;95.50;;;;;;5021977;28;20541;-72
2023/11/20 05:58:45;;;;;;;1.40;1.10;;;20.70;95.40;;;;;;5022125;28;20480;-73
2023/11/20 06:01:12;;;;;;;3.03;1.38;;;20.80;95.50;;;;;;5024530;28;20503;-73
2023/11/20 06:03:39;;;;;;;2.45;1.30;;;20.80;95.50;;;;;;5023993;28;20273;-68
2023/11/20 06:06:06;;;;;;;1.30;1.00;;;20.80;95.40;;;;;;5022785;28;20231;-71
2023/11/20 06:08:34;;;;;;;1.90;1.00;;;20.80;95.50;;;;;;5022124;28;20463;-71
2023/11/20 06:11:00;;;;;;;2.30;0.90;;;20.90;95.50;;;;;;5024788;28;20200;-70
2023/11/20 06:13:28;;;;;;;2.63;1.25;;;20.90;95.40;;;;;;5023873;28;20462;-70
2023/11/20 06:15:55;;;;;;;4.45;1.20;;;20.90;95.40;;;;;;5021719;28;20199;-73
2023/11/20 06:18:22;;;;;;;1.57;1.20;;;20.90;95.40;;;;;;5023778;28;20207;-73
2023/11/20 06:20:49;;;;;;;1.80;1.20;;;20.90;95.40;;;;;;5025174;28;20453;-74
2023/11/20 06:23:15;;;;;;;2.07;1.30;;;20.90;95.30;;;;;;5023155;28;20552;-71
2023/11/20 06:25:42;;;;;;;1.55;1.05;;;21.00;95.40;;;;;;5020232;28;20479;-68
2023/11/20 06:28:09;;;;;;;1.87;0.90;;;21.00;95.40;;;;;;5022147;28;20765;-69
2023/11/20 06:30:37;;;;;;;2.20;1.07;;;21.00;95.30;;;;;;5021166;28;20459;-76
2023/11/20 06:33:04;;;;;;;2.20;1.40;;;21.00;95.20;;;;;;5024977;28;20465;-75
2023/11/20 06:35:31;;;;;;;2.57;1.50;;;21.00;95.00;;;;;;5023945;28;20201;-76
2023/11/20 06:37:58;;;;;;;1.90;1.02;;;20.90;95.00;;;;;;5025153;28;20749;-76
2023/11/20 06:40:25;;;;;;;2.00;1.13;;;20.90;94.90;;;;;;5026272;28;20198;-76
2023/11/20 06:42:51;;;;;;;1.90;1.10;;;21.00;94.90;;;;;;5014673;28;20464;-73
2023/11/20 06:45:18;;;;;;;3.47;1.70;;;20.90;94.80;;;;;;5022907;28;20512;-73
2023/11/20 06:47:46;;;;;;;1.63;0.90;;;21.00;94.70;;;;;;5024589;28;20195;-73
2023/11/20 06:50:14;;;;;;;1.80;1.30;;;20.90;94.60;;;;;;5024885;28;20206;-73
2023/11/20 06:52:40;;;;;;;1.80;1.27;;;20.90;94.60;;;;;;5023218;28;20199;-72
2023/11/20 06:55:08;;;;;;;1.83;1.27;;;20.90;94.50;;;;;;5026735;28;21490;-73
2023/11/20 06:57:34;;;;;;;1.40;1.00;;;21.00;94.50;;;;;;5025370;28;20217;-75
2023/11/20 07:00:03;;;;;;;1.50;0.90;;;21.00;94.50;;;;;;5023814;28;21408;-71
2023/11/20 07:02:30;;;;;;;2.70;2.00;;;21.00;94.50;;;;;;5024847;28;20471;-67
2023/11/20 07:04:59;;;;;;;3.63;1.60;;;21.00;94.40;;;;;;5028593;28;20488;-67
2023/11/20 07:07:25;;;;;;;1.70;1.40;;;21.00;94.40;;;;;;5017738;28;20204;-67
2023/11/20 07:09:52;;;;;;;2.47;1.40;;;21.00;94.40;;;;;;5021778;28;21214;-65
2023/11/20 07:12:19;;;;;;;2.70;1.30;;;21.00;94.40;;;;;;5030304;28;20454;-66
2023/11/20 07:14:46;;;;;;;2.05;0.90;;;21.00;94.40;;;;;;5024257;28;20555;-64
2023/11/20 07:17:13;;;;;;;2.47;1.10;;;21.00;94.30;;;;;;5023067;28;21157;-68
2023/11/20 07:19:41;;;;;;;1.90;1.43;;;21.00;94.30;;;;;;5026514;28;20483;-70
2023/11/20 07:22:09;;;;;;;2.13;1.20;;;21.00;94.20;;;;;;5019291;28;20474;-69
2023/11/20 07:24:36;;;;;;;1.23;0.97;;;21.00;94.30;;;;;;5023573;28;20200;-72
2023/11/20 07:27:03;;;;;;;1.27;0.88;;;21.10;94.30;;;;;;5027417;28;20920;-70
2023/11/20 07:29:29;;;;;;;3.15;1.30;;;21.10;94.40;;;;;;5025902;28;20210;-71
2023/11/20 07:31:56;;;;;;;1.40;1.20;;;21.10;94.40;;;;;;5026934;28;20225;-71
2023/11/20 07:34:23;;;;;;;1.85;1.00;;;21.10;94.40;;;;;;5027324;28;20462;-70
2023/11/20 07:36:51;;;;;;;1.70;1.43;;;21.10;94.40;;;;;;5015958;28;20191;-70
2023/11/20 07:39:19;;;;;;;2.13;1.03;;;21.10;94.40;;;;;;5024349;28;20459;-67
2023/11/20 07:41:46;;;;;;;2.50;1.30;;;21.10;94.50;;;;;;5023154;28;20456;-67
2023/11/20 07:44:13;;;;;;;1.30;0.90;;;21.20;94.50;;;;;;5024457;28;20462;-65
2023/11/20 07:46:39;;;;;;;1.50;1.10;;;21.20;94.50;;;;;;5026737;28;21275;-65
2023/11/20 07:49:09;;;;;;;1.20;0.90;;;21.30;94.50;;;;;;5022993;28;20988;-72
2023/11/20 07:51:36;;;;;;;1.97;1.10;;;21.30;94.50;;;;;;5020714;28;21374;-65
2023/11/20 07:54:03;;;;;;;1.60;0.90;;;21.30;94.50;;;;;;5029598;28;20462;-69
2023/11/20 07:56:31;;;;;;;2.03;1.27;;;21.30;94.50;;;;;;5026992;28;20559;-65
2023/11/20 07:58:58;;;;;;;2.50;1.90;;;21.40;94.50;;;;;;5026491;28;20463;-69
2023/11/20 08:01:25;;;;;;;1.30;0.93;;;21.40;94.50;;;;;;5024982;28;20871;-72
2023/11/20 08:03:52;;;;;;;1.63;1.00;;;21.50;94.50;;;;;;5023666;28;20493;-69
2023/11/20 08:06:19;;;;;;;2.43;1.10;;;21.50;94.50;;;;;;5028740;28;20493;-71
2023/11/20 08:08:46;;;;;;;1.67;1.47;;;21.50;94.40;;;;;;5023287;28;20533;-67
2023/11/20 08:11:13;;;;;;;2.33;1.40;;;21.50;94.30;;;;;;5023800;28;21032;-66
2023/11/20 08:13:41;;;;;;;1.80;1.30;;;21.50;94.40;;;;;;5027297;28;20466;-69
2023/11/20 08:16:09;;;;;;;1.30;1.10;;;21.50;94.40;;;;;;5025709;28;20481;-68
2023/11/20 08:18:36;;;;;;;2.60;1.03;;;21.60;94.40;;;;;;5022312;28;20493;-65
2023/11/20 08:21:03;;;;;;;1.30;1.00;;;21.60;94.40;;;;;;5029170;28;20445;-66
2023/11/20 08:23:30;;;;;;;1.70;1.10;;;21.60;94.40;;;;;;5026198;28;25281;-66
2023/11/20 08:25:57;;;;;;;1.37;1.27;;;21.60;94.30;;;;;;5023918;28;20481;-66
2023/11/20 08:28:24;;;;;;;3.20;1.43;;;21.70;94.30;;;;;;5021161;28;20480;-69
2023/11/20 08:30:53;;;;;;;2.97;1.87;;;21.70;93.90;;;;;;5013835;28;21110;-75
2023/11/20 08:33:19;;;;;;;3.90;2.10;;;21.60;92.90;;;;;;5024676;28;20462;-74
2023/11/20 08:35:46;;;;;;;7.70;2.63;;;21.70;92.10;;;;;;5027542;28;20815;-73
2023/11/20 08:38:13;;;;;;;5.27;2.10;;;21.60;91.50;;;;;;5027029;28;20474;-74
2023/11/20 08:40:40;;;;;;;4.87;2.23;;;21.60;90.90;;;;;;5025338;28;20518;-70
2023/11/20 08:43:08;;;;;;;4.10;1.83;;;21.60;90.60;;;;;;5027154;28;20467;-69
2023/11/20 08:45:35;;;;;;;5.87;2.97;;;21.60;91.40;;;;;;5023155;28;20473;-70
2023/11/20 08:48:05;;;;;;;3.33;1.70;;;21.60;91.70;;;;;;5022565;28;20954;-71
2023/11/20 08:50:32;;;;;;;3.40;1.63;;;21.70;91.70;;;;;;5023147;28;20459;-70
2023/11/20 08:52:58;;;;;;;5.60;2.00;;;21.70;91.70;;;;;;5022334;28;20457;-70
2023/11/20 08:55:26;;;;;;;3.53;1.73;;;21.70;91.80;;;;;;5025061;28;20461;-70
2023/11/20 08:57:52;;;;;;;2.47;1.57;;;21.70;91.70;;;;;;5023707;28;20454;-71
2023/11/20 09:00:20;;;;;;;3.37;2.07;;;21.70;91.70;;;;;;5021141;28;20458;-71
2023/11/20 09:02:46;;;;;;;3.10;1.80;;;21.70;91.70;;;;;;5021133;28;20465;-71
2023/11/20 09:05:14;;;;;;;4.00;2.27;;;21.80;91.80;;;;;;5023584;28;20494;-71
2023/11/20 09:07:41;;;;;;;3.43;1.83;;;21.80;91.80;;;;;;5018816;28;20454;-70
2023/11/20 09:10:09;;;;;;;4.60;2.43;;;21.80;91.80;;;;;;5022950;28;20643;-70
2023/11/20 09:12:36;;;;;;;6.60;2.97;;;21.80;91.80;;;;;;5019830;28;20502;-70
2023/11/20 09:15:04;;;;;;;4.13;2.80;;;21.80;91.80;;;;;;5024072;28;20457;-70
2023/11/20 09:17:31;;;;;;;7.50;3.87;;;21.80;92.20;;;;;;5014701;28;20464;-68
2023/11/20 09:19:59;;;;;;;4.43;3.83;;;21.80;91.80;;;;;;5027949;28;20482;-70
2023/11/20 09:22:27;;;;;;;6.27;4.30;;;21.80;91.80;;;;;;5024903;28;21236;-70
2023/11/20 09:24:54;;;;;;;7.23;4.47;;;21.80;91.80;;;;;;5021379;28;20454;-68
2023/11/20 09:27:21;;;;;;;7.03;4.17;;;21.80;92.20;;;;;;5021274;28;21320;-68
2023/11/20 09:29:48;;;;;;;8.27;5.50;;;21.80;91.90;;;;;;5022292;28;20460;-68
2023/11/20 09:32:14;;;;;;;9.73;4.97;;;21.80;91.90;;;;;;5018634;28;20464;-68
2023/11/20 09:34:41;;;;;;;8.23;5.33;;;21.90;92.00;;;;;;5024076;28;20457;-70
2023/11/20 09:37:09;;;;;;;12.60;6.30;;;21.90;92.00;;;;;;5016338;28;21000;-70
2023/11/20 09:39:41;;;;;;;9.07;6.30;;;21.90;92.00;;;;;;5025060;28;20486;-70
2023/11/20 09:42:08;;;;;;;8.47;5.80;;;21.90;92.10;;;;;;5022103;28;20981;-70
2023/11/20 09:44:40;;;;;;;12.43;6.83;;;21.90;92.00;;;;;;5023522;28;20470;-70
2023/11/20 09:47:10;;;;;;;10.80;6.50;;;21.90;92.00;;;;;;5022966;28;21207;-70
2023/11/20 09:49:37;;;;;;;11.63;6.80;;;21.90;92.00;;;;;;5024936;28;20536;-70
2023/11/20 09:52:08;;;;;;;9.53;5.40;;;21.90;92.00;;;;;;5012027;28;20454;-68
2023/11/20 09:54:41;;;;;;;9.17;6.10;;;21.90;92.00;;;;;;5025023;28;20454;-68
2023/11/20 09:57:09;;;;;;;9.47;6.30;;;21.90;91.90;;;;;;5023087;28;20457;-68
2023/11/20 09:59:36;;;;;;;8.30;6.27;;;21.90;91.90;;;;;;5022596;28;20512;-68
2023/11/20 10:02:04;;;;;;;8.70;6.20;;;21.90;91.90;;;;;;5020416;28;20461;-68
2023/11/20 10:04:33;;;;;;;7.30;5.67;;;21.90;91.90;;;;;;5023979;28;20469;-68
2023/11/20 10:07:03;;;;;;;7.80;6.07;;;21.90;91.90;;;;;;5022980;28;20484;-69
2023/11/20 10:09:31;;;;;;;10.80;6.13;;;21.90;91.90;;;;;;5017862;28;20462;-68
2023/11/20 10:12:03;;;;;;;11.20;7.27;;;21.90;92.00;;;;;;5024182;28;21044;-68
2023/11/20 10:14:31;;;;;;;13.80;6.90;;;21.90;92.00;;;;;;5026690;28;20544;-63
2023/11/20 10:16:59;;;;;;;12.93;6.40;;;21.90;91.90;;;;;;5022066;28;20456;-65
2023/11/20 10:19:26;;;;;;;10.93;7.57;;;21.90;91.90;;;;;;5023810;28;20466;-64
2023/11/20 10:21:53;;;;;;;17.73;7.30;;;21.90;92.10;;;;;;5024515;28;20494;-70
2023/11/20 10:24:20;;;;;;;14.47;7.37;;;21.90;92.10;;;;;;5025425;28;20788;-68
2023/11/20 10:26:47;;;;;;;18.40;7.60;;;21.90;92.30;;;;;;5021306;28;20469;-69
2023/11/20 10:29:15;;;;;;;17.00;7.27;;;22.00;92.40;;;;;;5024332;28;20966;-61
2023/11/20 10:31:43;;;;;;;19.80;8.67;;;21.90;92.50;;;;;;5015749;28;20468;-67
2023/11/20 10:34:10;;;;;;;13.97;7.80;;;22.00;92.90;;;;;;5026223;28;20453;-71
2023/11/20 10:36:37;;;;;;;15.13;8.73;;;22.00;92.80;;;;;;5020174;28;20474;-69
2023/11/20 10:39:05;;;;;;;15.67;7.73;;;22.00;93.10;;;;;;5029809;28;20457;-65
2023/11/20 10:41:33;;;;;;;17.77;8.50;;;22.00;92.90;;;;;;5027463;28;20469;-67
2023/11/20 10:44:00;;;;;;;13.67;8.03;;;22.00;93.00;;;;;;5026822;28;20453;-54
2023/11/20 10:46:28;;;;;;;16.00;8.70;;;22.00;93.00;;;;;;5027520;28;20484;-68
2023/11/20 10:48:56;;;;;;;18.40;7.83;;;22.00;93.10;;;;;;5029213;28;20456;-67
2023/11/20 10:51:25;;;;;;;11.37;7.50;;;22.00;93.00;;;;;;5024371;28;20465;-72
2023/11/20 10:53:59;;;;;;;12.80;7.97;;;22.00;93.00;;;;;;5031735;28;20458;-67
2023/11/20 10:56:30;;;;;;;13.13;8.73;;;22.00;93.00;;;;;;5031797;28;20458;-70
2023/11/20 10:59:00;;;;;;;11.00;7.50;;;22.00;93.10;;;;;;5029614;28;20469;-66
2023/11/20 11:01:29;;;;;;;13.00;8.77;;;22.00;93.00;;;;;;5024521;28;20467;-67
2023/11/20 11:03:58;;;;;;;11.73;8.10;;;21.90;92.90;;;;;;5025870;28;20466;-69
2023/11/20 11:06:25;;;;;;;14.90;8.17;;;21.90;93.00;;;;;;5031078;28;20497;-68
2023/11/20 11:08:54;;;;;;;12.70;8.20;;;21.90;92.90;;;;;;5029494;28;20973;-67
2023/11/20 11:11:22;;;;;;;16.50;8.20;;;21.90;92.90;;;;;;5020605;28;20962;-69
2023/11/20 11:13:50;;;;;;;13.87;8.47;;;21.90;92.90;;;;;;5021758;28;20462;-67
2023/11/20 11:16:27;;;;;;;16.70;8.07;;;21.90;92.90;;;;;;5026794;28;20534;-67
2023/11/20 11:19:04;;;;;;;15.57;7.00;;;21.80;92.90;;;;;;5022993;28;20468;-70
2023/11/20 11:21:39;;;;;;;9.57;7.53;;;21.80;92.80;;;;;;5027097;28;20454;-67
2023/11/20 11:24:11;;;;;;;10.40;7.53;;;21.80;92.80;;;;;;5032277;28;20846;-68
2023/11/20 11:26:46;;;;;;;13.13;7.90;;;21.80;92.80;;;;;;5026783;28;20508;-67
2023/11/20 11:29:18;;;;;;;12.50;6.90;;;21.80;92.90;;;;;;5026635;28;20461;-66
2023/11/20 11:32:00;;;;;;;10.40;6.87;;;21.80;92.90;;;;;;5027617;28;20465;-67
2023/11/20 11:34:56;;;;;;;8.00;6.00;;;21.80;92.90;;;;;;5014790;28;20563;-67
2023/11/20 11:37:29;;;;;;;14.27;7.37;;;21.80;92.90;;;;;;5018759;28;21865;-68
2023/11/20 11:40:09;;;;;;;10.30;7.07;;;21.80;93.00;;;;;;5022362;28;20552;-69
2023/11/20 11:42:42;;;;;;;11.87;7.57;;;21.80;93.00;;;;;;5027132;28;20447;-67
2023/11/20 11:45:14;;;;;;;9.47;6.77;;;21.80;93.00;;;;;;5022694;28;20454;-66
2023/11/20 11:47:43;;;;;;;13.57;7.57;;;21.80;93.00;;;;;;5023111;28;20906;-69
2023/11/20 11:50:11;;;;;;;11.07;7.03;;;21.80;93.00;;;;;;5024808;28;20636;-69
2023/11/20 11:52:38;;;;;;;10.70;7.63;;;21.80;93.00;;;;;;5021185;28;20466;-69
2023/11/20 11:55:25;;;;;;;10.17;7.33;;;21.80;93.00;;;;;;5022709;28;20462;-68
2023/11/20 11:57:57;;;;;;;8.00;6.93;;;21.80;93.00;;;;;;5021926;28;20865;-69
2023/11/20 12:00:26;;;;;;;10.30;6.47;;;21.80;93.00;;;;;;5023340;28;21429;-68
2023/11/20 12:02:59;;;;;;;10.07;6.90;;;21.80;93.00;;;;;;5021001;28;20907;-69
2023/11/20 12:05:29;;;;;;;9.30;6.73;;;21.90;93.10;;;;;;5021906;28;20478;-66
2023/11/20 12:07:57;;;;;;;10.57;6.73;;;21.80;93.00;;;;;;5014304;28;20489;-68
2023/11/20 12:10:49;;;;;;;10.93;7.00;;;21.90;93.00;;;;;;5024740;28;20493;-69
2023/11/20 12:13:16;;;;;;;11.00;8.40;;;21.90;93.20;;;;;;5023822;28;20465;-63
2023/11/20 12:15:45;;;;;;;8.93;6.50;;;21.80;93.10;;;;;;5021960;28;20462;-65
2023/11/20 12:18:15;;;;;;;11.77;7.87;;;21.80;93.00;;;;;;5024594;28;20467;-64
2023/11/20 12:20:58;;;;;;;10.97;6.73;;;21.80;93.00;;;;;;5022551;28;20945;-65
2023/11/20 12:23:28;;;;;;;9.10;7.17;;;21.80;93.10;;;;;;5021491;28;20465;-62
2023/11/20 12:25:56;;;;;;;8.93;6.70;;;21.80;93.10;;;;;;5026242;28;20884;-66
2023/11/20 12:28:24;;;;;;;16.07;7.07;;;21.80;93.20;;;;;;5026473;28;21141;-61
2023/11/20 12:30:51;;;;;;;11.00;6.80;;;21.80;93.20;;;;;;5026883;28;20464;-61
2023/11/20 12:33:18;;;;;;;7.60;5.90;;;21.80;93.10;;;;;;5028613;28;20455;-61
2023/11/20 12:35:52;;;;;;;13.83;6.80;;;21.80;93.20;;;;;;5027553;28;20490;-60
2023/11/20 12:38:19;;;;;;;9.27;6.33;;;21.80;93.20;;;;;;5028160;28;20554;-60
2023/11/20 12:40:49;;;;;;;12.40;5.73;;;21.80;93.10;;;;;;5026327;28;20454;-61
2023/11/20 12:43:16;;;;;;;10.60;7.10;;;21.80;93.10;;;;;;5028328;28;20497;-61
2023/11/20 12:45:44;;;;;;;9.50;6.67;;;21.80;93.10;;;;;;5020931;28;23543;-61
2023/11/20 12:48:11;;;;;;;12.07;6.63;;;21.80;93.20;;;;;;5025105;28;20485;-61
2023/11/20 12:50:38;;;;;;;8.27;5.73;;;21.80;93.10;;;;;;5026544;28;20462;-60